sensor_id;sensor_type;location;lat;lon;timestamp;pressure;altitude;pressure_sealevel;temperature;humidity
5905;BME280;2978;42.012;24.880;2023-08-08T08:29:27;98841.88;;;22.16;63.65
5905;BME280;2978;42.012;24.880;2023-08-08T08:31:52;98849.38;;;22.24;64.61
5905;BME280;2978;42.012;24.880;2023-08-08T08:34:18;98841.88;;;22.41;64.09
5905;BME280;2978;42.012;24.880;2023-08-08T08:36:43;98845.63;;;22.69;63.79
5905;BME280;2978;42.012;24.880;2023-08-08T08:39:09;98849.69;;;22.95;63.50
5905;BME280;2978;42.012;24.880;2023-08-08T08:41:35;98847.53;;;23.16;62.42
5905;BME280;2978;42.012;24.880;2023-08-08T08:44:05;98848.56;;;23.24;60.78
5905;BME280;2978;42.012;24.880;2023-08-08T08:46:32;98846.44;;;23.33;60.41
5905;BME280;2978;42.012;24.880;2023-08-08T08:48:59;98848.06;;;23.34;60.06
5905;BME280;2978;42.012;24.880;2023-08-08T08:51:27;98846.47;;;23.49;61.21
5905;BME280;2978;42.012;24.880;2023-08-08T08:53:53;98832.81;;;23.47;61.64
5905;BME280;2978;42.012;24.880;2023-08-08T08:56:19;98832.75;;;23.59;58.68
5905;BME280;2978;42.012;24.880;2023-08-08T08:58:45;98835.81;;;23.54;60.24
5905;BME280;2978;42.012;24.880;2023-08-08T09:01:11;98836.47;;;23.63;56.89
5905;BME280;2978;42.012;24.880;2023-08-08T09:03:37;98840.91;;;23.64;56.07
5905;BME280;2978;42.012;24.880;2023-08-08T09:06:04;98845.38;;;23.81;54.68
5905;BME280;2978;42.012;24.880;2023-08-08T09:08:31;98830.16;;;24.09;54.68
5905;BME280;2978;42.012;24.880;2023-08-08T09:10:56;98835.13;;;24.31;53.62
5905;BME280;2978;42.012;24.880;2023-08-08T09:13:22;98834.56;;;24.26;51.53
5905;BME280;2978;42.012;24.880;2023-08-08T09:15:50;98829.88;;;24.30;50.56
5905;BME280;2978;42.012;24.880;2023-08-08T09:18:16;98824.53;;;24.09;50.81
5905;BME280;2978;42.012;24.880;2023-08-08T09:20:47;98836.22;;;24.42;52.01
5905;BME280;2978;42.012;24.880;2023-08-08T09:23:12;98821.22;;;24.70;49.89
5905;BME280;2978;42.012;24.880;2023-08-08T09:25:38;98819.97;;;24.86;49.97
5905;BME280;2978;42.012;24.880;2023-08-08T09:28:03;98821.44;;;25.15;49.69
5905;BME280;2978;42.012;24.880;2023-08-08T09:30:29;98808.84;;;25.28;49.06
5905;BME280;2978;42.012;24.880;2023-08-08T09:32:58;98808.56;;;25.52;48.94
5905;BME280;2978;42.012;24.880;2023-08-08T09:35:24;98803.25;;;25.47;47.20
5905;BME280;2978;42.012;24.880;2023-08-08T09:37:53;98806.84;;;25.47;47.41
5905;BME280;2978;42.012;24.880;2023-08-08T09:40:19;98801.59;;;25.46;46.88
5905;BME280;2978;42.012;24.880;2023-08-08T09:42:46;98798.16;;;25.18;47.83
5905;BME280;2978;42.012;24.880;2023-08-08T09:45:12;98797.88;;;25.04;48.11
5905;BME280;2978;42.012;24.880;2023-08-08T09:47:37;98808.41;;;25.07;47.77
5905;BME280;2978;42.012;24.880;2023-08-08T09:50:04;98798.53;;;24.97;47.40
5905;BME280;2978;42.012;24.880;2023-08-08T09:52:30;98790.78;;;25.10;48.33
5905;BME280;2978;42.012;24.880;2023-08-08T09:54:56;98795.50;;;25.63;46.81
5905;BME280;2978;42.012;24.880;2023-08-08T09:57:22;98796.59;;;26.00;45.52
5905;BME280;2978;42.012;24.880;2023-08-08T09:59:49;98793.09;;;26.29;43.29
5905;BME280;2978;42.012;24.880;2023-08-08T10:02:16;98799.50;;;26.52;43.29
5905;BME280;2978;42.012;24.880;2023-08-08T10:04:44;98793.31;;;26.43;43.26
5905;BME280;2978;42.012;24.880;2023-08-08T10:07:11;98787.03;;;26.27;42.49
5905;BME280;2978;42.012;24.880;2023-08-08T10:09:36;98791.91;;;26.30;43.33
5905;BME280;2978;42.012;24.880;2023-08-08T10:12:04;98794.19;;;26.47;42.33
5905;BME280;2978;42.012;24.880;2023-08-08T10:14:31;98796.34;;;26.31;41.82
5905;BME280;2978;42.012;24.880;2023-08-08T10:16:57;98786.22;;;26.27;41.80
5905;BME280;2978;42.012;24.880;2023-08-08T10:19:23;98793.34;;;26.21;42.16
5905;BME280;2978;42.012;24.880;2023-08-08T10:21:50;98786.97;;;26.01;43.20
5905;BME280;2978;42.012;24.880;2023-08-08T10:24:20;98793.16;;;26.10;41.49
5905;BME280;2978;42.012;24.880;2023-08-08T10:26:57;98799.84;;;26.02;40.90
5905;BME280;2978;42.012;24.880;2023-08-08T10:29:26;98787.91;;;26.09;40.43
5905;BME280;2978;42.012;24.880;2023-08-08T10:32:02;98789.91;;;26.31;40.17
5905;BME280;2978;42.012;24.880;2023-08-08T10:34:44;98801.69;;;26.62;39.69
5905;BME280;2978;42.012;24.880;2023-08-08T10:37:14;98788.25;;;26.79;39.24
5905;BME280;2978;42.012;24.880;2023-08-08T10:39:54;98792.97;;;26.71;40.36
5905;BME280;2978;42.012;24.880;2023-08-08T10:42:23;98773.69;;;26.77;39.35
5905;BME280;2978;42.012;24.880;2023-08-08T10:44:55;98774.88;;;27.02;38.88
5905;BME280;2978;42.012;24.880;2023-08-08T10:47:34;98777.59;;;26.95;39.01
5905;BME280;2978;42.012;24.880;2023-08-08T10:50:08;98772.16;;;26.79;38.01
5905;BME280;2978;42.012;24.880;2023-08-08T10:55:26;98764.16;;;26.85;38.23
5905;BME280;2978;42.012;24.880;2023-08-08T11:00:24;98762.06;;;27.41;37.46
5905;BME280;2978;42.012;24.880;2023-08-08T11:02:51;98761.53;;;27.65;37.29
5905;BME280;2978;42.012;24.880;2023-08-08T11:05:16;98762.94;;;27.85;36.66
5905;BME280;2978;42.012;24.880;2023-08-08T11:07:42;98775.03;;;27.82;37.14
5905;BME280;2978;42.012;24.880;2023-08-08T11:10:08;98764.88;;;27.77;36.98
5905;BME280;2978;42.012;24.880;2023-08-08T11:12:34;98770.03;;;27.65;37.00
5905;BME280;2978;42.012;24.880;2023-08-08T11:15:00;98770.94;;;27.39;38.37
5905;BME280;2978;42.012;24.880;2023-08-08T11:17:26;98765.97;;;27.29;37.89
5905;BME280;2978;42.012;24.880;2023-08-08T11:19:52;98770.53;;;27.11;37.73
5905;BME280;2978;42.012;24.880;2023-08-08T11:22:21;98763.25;;;26.77;38.52
5905;BME280;2978;42.012;24.880;2023-08-08T11:24:48;98763.50;;;26.42;39.05
5905;BME280;2978;42.012;24.880;2023-08-08T11:27:15;98762.06;;;26.29;39.50
5905;BME280;2978;42.012;24.880;2023-08-08T11:29:40;98742.34;;;26.29;39.99
5905;BME280;2978;42.012;24.880;2023-08-08T11:32:06;98747.13;;;26.25;39.55
5905;BME280;2978;42.012;24.880;2023-08-08T11:34:32;98752.88;;;26.32;38.75
5905;BME280;2978;42.012;24.880;2023-08-08T11:37:00;98740.72;;;26.28;38.89
5905;BME280;2978;42.012;24.880;2023-08-08T11:39:26;98750.84;;;26.33;38.70
5905;BME280;2978;42.012;24.880;2023-08-08T11:41:52;98753.56;;;26.26;38.65
5905;BME280;2978;42.012;24.880;2023-08-08T11:44:19;98737.09;;;26.28;38.55
5905;BME280;2978;42.012;24.880;2023-08-08T11:46:45;98746.59;;;26.42;38.49
5905;BME280;2978;42.012;24.880;2023-08-08T11:49:13;98742.19;;;26.71;38.31
5905;BME280;2978;42.012;24.880;2023-08-08T11:51:39;98728.44;;;26.99;38.04
5905;BME280;2978;42.012;24.880;2023-08-08T11:54:04;98721.28;;;27.38;36.99
5905;BME280;2978;42.012;24.880;2023-08-08T11:56:32;98726.63;;;27.47;36.86
5905;BME280;2978;42.012;24.880;2023-08-08T11:58:59;98717.56;;;27.31;36.35
5905;BME280;2978;42.012;24.880;2023-08-08T12:01:26;98718.09;;;27.40;35.62
5905;BME280;2978;42.012;24.880;2023-08-08T12:03:52;98715.75;;;27.49;35.21
5905;BME280;2978;42.012;24.880;2023-08-08T12:06:18;98712.44;;;27.40;34.94
5905;BME280;2978;42.012;24.880;2023-08-08T12:08:45;98716.28;;;27.25;35.05
5905;BME280;2978;42.012;24.880;2023-08-08T12:11:11;98713.72;;;27.13;34.70
5905;BME280;2978;42.012;24.880;2023-08-08T12:13:45;98696.47;;;26.88;34.81
5905;BME280;2978;42.012;24.880;2023-08-08T12:16:13;98709.09;;;26.98;35.07
5905;BME280;2978;42.012;24.880;2023-08-08T12:18:39;98683.56;;;26.87;35.28
5905;BME280;2978;42.012;24.880;2023-08-08T12:21:09;98695.66;;;27.21;34.96
5905;BME280;2978;42.012;24.880;2023-08-08T12:23:36;98680.19;;;27.44;35.07
5905;BME280;2978;42.012;24.880;2023-08-08T12:26:05;98687.66;;;27.63;34.27
5905;BME280;2978;42.012;24.880;2023-08-08T12:28:32;98683.69;;;27.71;33.87
5905;BME280;2978;42.012;24.880;2023-08-08T12:30:58;98679.66;;;27.72;33.80
5905;BME280;2978;42.012;24.880;2023-08-08T12:33:23;98678.47;;;27.73;34.08
5905;BME280;2978;42.012;24.880;2023-08-08T12:35:49;98670.69;;;27.63;34.10
5905;BME280;2978;42.012;24.880;2023-08-08T12:38:15;98666.22;;;27.62;34.15
5905;BME280;2978;42.012;24.880;2023-08-08T12:40:41;98670.63;;;27.56;34.37
5905;BME280;2978;42.012;24.880;2023-08-08T12:43:06;98673.09;;;27.61;33.63
5905;BME280;2978;42.012;24.880;2023-08-08T12:45:32;98664.97;;;27.56;34.18
5905;BME280;2978;42.012;24.880;2023-08-08T12:47:57;98673.16;;;27.68;33.99
5905;BME280;2978;42.012;24.880;2023-08-08T12:50:24;98668.75;;;27.74;33.65
5905;BME280;2978;42.012;24.880;2023-08-08T12:52:49;98670.06;;;27.84;32.82
5905;BME280;2978;42.012;24.880;2023-08-08T12:55:15;98672.59;;;27.92;31.92
5905;BME280;2978;42.012;24.880;2023-08-08T12:57:42;98667.28;;;27.87;32.42
5905;BME280;2978;42.012;24.880;2023-08-08T13:00:08;98664.53;;;27.94;31.76
5905;BME280;2978;42.012;24.880;2023-08-08T13:02:34;98678.28;;;27.96;32.88
5905;BME280;2978;42.012;24.880;2023-08-08T13:04:59;98665.75;;;27.97;32.75
5905;BME280;2978;42.012;24.880;2023-08-08T13:07:25;98664.22;;;28.06;33.25
5905;BME280;2978;42.012;24.880;2023-08-08T13:09:51;98659.03;;;28.15;33.02
5905;BME280;2978;42.012;24.880;2023-08-08T13:12:16;98652.69;;;28.32;32.29
5905;BME280;2978;42.012;24.880;2023-08-08T13:14:41;98656.31;;;28.33;31.87
5905;BME280;2978;42.012;24.880;2023-08-08T13:17:07;98657.09;;;28.30;32.28
5905;BME280;2978;42.012;24.880;2023-08-08T13:19:32;98657.63;;;28.49;31.49
5905;BME280;2978;42.012;24.880;2023-08-08T13:21:58;98650.41;;;28.55;31.59
5905;BME280;2978;42.012;24.880;2023-08-08T13:24:23;98656.44;;;28.50;31.02
5905;BME280;2978;42.012;24.880;2023-08-08T13:26:49;98650.31;;;28.41;31.78
5905;BME280;2978;42.012;24.880;2023-08-08T13:29:15;98647.88;;;28.36;31.66
5905;BME280;2978;42.012;24.880;2023-08-08T13:31:40;98662.69;;;28.19;32.09
5905;BME280;2978;42.012;24.880;2023-08-08T13:34:06;98651.41;;;28.26;32.47
5905;BME280;2978;42.012;24.880;2023-08-08T13:36:31;98658.66;;;28.20;32.37
5905;BME280;2978;42.012;24.880;2023-08-08T13:38:57;98663.81;;;28.08;32.52
5905;BME280;2978;42.012;24.880;2023-08-08T13:41:23;98655.84;;;28.20;32.20
5905;BME280;2978;42.012;24.880;2023-08-08T13:43:48;98654.22;;;28.23;31.75
5905;BME280;2978;42.012;24.880;2023-08-08T13:46:14;98640.63;;;28.49;32.03
5905;BME280;2978;42.012;24.880;2023-08-08T13:48:39;98648.94;;;28.90;31.98
5905;BME280;2978;42.012;24.880;2023-08-08T13:51:05;98656.63;;;28.93;32.26
5905;BME280;2978;42.012;24.880;2023-08-08T13:53:30;98657.78;;;28.74;32.95
5905;BME280;2978;42.012;24.880;2023-08-08T13:55:56;98652.53;;;28.79;31.93
5905;BME280;2978;42.012;24.880;2023-08-08T13:58:21;98650.16;;;28.89;31.43
5905;BME280;2978;42.012;24.880;2023-08-08T14:00:50;98664.31;;;28.89;31.70
5905;BME280;2978;42.012;24.880;2023-08-08T14:03:16;98649.66;;;28.65;32.06
5905;BME280;2978;42.012;24.880;2023-08-08T14:05:42;98667.84;;;28.61;31.52
5905;BME280;2978;42.012;24.880;2023-08-08T14:08:08;98651.59;;;28.54;31.07
5905;BME280;2978;42.012;24.880;2023-08-08T14:10:34;98662.97;;;28.61;31.60
5905;BME280;2978;42.012;24.880;2023-08-08T14:13:00;98654.47;;;28.61;31.05
5905;BME280;2978;42.012;24.880;2023-08-08T14:15:25;98664.22;;;28.67;31.68
5905;BME280;2978;42.012;24.880;2023-08-08T14:17:51;98656.91;;;28.66;31.42
5905;BME280;2978;42.012;24.880;2023-08-08T14:20:16;98648.44;;;28.66;31.22
5905;BME280;2978;42.012;24.880;2023-08-08T14:22:45;98637.97;;;28.74;31.26
5905;BME280;2978;42.012;24.880;2023-08-08T14:25:12;98648.91;;;28.83;31.29
5905;BME280;2978;42.012;24.880;2023-08-08T14:27:37;98656.91;;;28.66;31.50
5905;BME280;2978;42.012;24.880;2023-08-08T14:30:03;98651.91;;;28.42;31.31
5905;BME280;2978;42.012;24.880;2023-08-08T14:32:29;98649.50;;;28.44;31.92
5905;BME280;2978;42.012;24.880;2023-08-08T14:34:54;98646.75;;;28.51;31.36
5905;BME280;2978;42.012;24.880;2023-08-08T14:37:20;98652.03;;;28.56;31.03
5905;BME280;2978;42.012;24.880;2023-08-08T14:39:46;98641.97;;;28.62;31.13
5905;BME280;2978;42.012;24.880;2023-08-08T14:42:12;98650.50;;;28.69;30.90
5905;BME280;2978;42.012;24.880;2023-08-08T14:44:37;98660.19;;;28.72;30.70
5905;BME280;2978;42.012;24.880;2023-08-08T14:47:03;98650.84;;;28.57;31.08
5905;BME280;2978;42.012;24.880;2023-08-08T14:49:28;98655.16;;;28.41;31.00
5905;BME280;2978;42.012;24.880;2023-08-08T14:51:54;98656.00;;;28.45;30.99
5905;BME280;2978;42.012;24.880;2023-08-08T14:54:19;98668.84;;;28.35;30.80
5905;BME280;2978;42.012;24.880;2023-08-08T14:57:05;98649.41;;;28.27;30.78
5905;BME280;2978;42.012;24.880;2023-08-08T14:59:30;98642.88;;;28.19;31.39
5905;BME280;2978;42.012;24.880;2023-08-08T15:01:56;98640.84;;;28.16;31.16
5905;BME280;2978;42.012;24.880;2023-08-08T15:04:21;98650.94;;;28.14;31.59
5905;BME280;2978;42.012;24.880;2023-08-08T15:06:46;98646.47;;;28.09;31.18
5905;BME280;2978;42.012;24.880;2023-08-08T15:09:12;98642.81;;;28.05;31.91
5905;BME280;2978;42.012;24.880;2023-08-08T15:11:38;98634.72;;;28.07;31.80
5905;BME280;2978;42.012;24.880;2023-08-08T15:14:04;98641.25;;;28.15;30.98
5905;BME280;2978;42.012;24.880;2023-08-08T15:16:29;98636.84;;;28.21;31.64
5905;BME280;2978;42.012;24.880;2023-08-08T15:18:55;98641.75;;;28.27;31.47
5905;BME280;2978;42.012;24.880;2023-08-08T15:21:20;98631.28;;;28.31;30.78
5905;BME280;2978;42.012;24.880;2023-08-08T15:23:46;98633.59;;;28.19;31.42
5905;BME280;2978;42.012;24.880;2023-08-08T15:26:14;98644.44;;;28.10;32.09
5905;BME280;2978;42.012;24.880;2023-08-08T15:28:41;98640.81;;;28.13;31.79
5905;BME280;2978;42.012;24.880;2023-08-08T15:31:07;98635.13;;;28.06;31.62
5905;BME280;2978;42.012;24.880;2023-08-08T15:33:32;98644.44;;;28.06;32.42
5905;BME280;2978;42.012;24.880;2023-08-08T15:35:58;98628.28;;;28.07;32.47
5905;BME280;2978;42.012;24.880;2023-08-08T15:38:24;98640.47;;;28.21;33.01
5905;BME280;2978;42.012;24.880;2023-08-08T15:40:49;98642.59;;;28.31;32.18
5905;BME280;2978;42.012;24.880;2023-08-08T15:43:15;98634.13;;;28.35;31.92
5905;BME280;2978;42.012;24.880;2023-08-08T15:45:40;98640.56;;;28.35;31.77
5905;BME280;2978;42.012;24.880;2023-08-08T15:48:06;98638.16;;;28.37;31.55
5905;BME280;2978;42.012;24.880;2023-08-08T15:50:31;98638.97;;;28.34;31.50
5905;BME280;2978;42.012;24.880;2023-08-08T15:52:57;98638.53;;;28.32;31.60
5905;BME280;2978;42.012;24.880;2023-08-08T15:55:24;98636.13;;;28.34;31.77
5905;BME280;2978;42.012;24.880;2023-08-08T15:57:50;98643.78;;;28.34;31.08
5905;BME280;2978;42.012;24.880;2023-08-08T16:00:15;98646.19;;;28.28;30.80
5905;BME280;2978;42.012;24.880;2023-08-08T16:02:41;98654.25;;;28.26;30.62
5905;BME280;2978;42.012;24.880;2023-08-08T16:05:08;98650.19;;;28.24;30.80
5905;BME280;2978;42.012;24.880;2023-08-08T16:07:35;98648.50;;;28.16;31.14
5905;BME280;2978;42.012;24.880;2023-08-08T16:10:02;98646.84;;;28.08;30.99
5905;BME280;2978;42.012;24.880;2023-08-08T16:12:28;98652.59;;;28.22;30.95
5905;BME280;2978;42.012;24.880;2023-08-08T16:14:53;98651.84;;;28.28;31.27
5905;BME280;2978;42.012;24.880;2023-08-08T16:17:19;98648.59;;;28.30;30.73
5905;BME280;2978;42.012;24.880;2023-08-08T16:19:44;98655.47;;;28.29;30.55
5905;BME280;2978;42.012;24.880;2023-08-08T16:22:10;98655.03;;;28.23;30.99
5905;BME280;2978;42.012;24.880;2023-08-08T16:24:35;98655.00;;;28.16;30.93
5905;BME280;2978;42.012;24.880;2023-08-08T16:27:00;98652.50;;;28.08;30.83
5905;BME280;2978;42.012;24.880;2023-08-08T16:29:26;98654.53;;;28.07;31.63
5905;BME280;2978;42.012;24.880;2023-08-08T16:31:51;98655.75;;;28.10;30.96
5905;BME280;2978;42.012;24.880;2023-08-08T16:34:17;98659.00;;;28.12;31.06
5905;BME280;2978;42.012;24.880;2023-08-08T16:36:42;98662.28;;;28.17;31.35
5905;BME280;2978;42.012;24.880;2023-08-08T16:39:07;98663.09;;;28.21;31.26
5905;BME280;2978;42.012;24.880;2023-08-08T16:41:33;98668.75;;;28.21;31.03
5905;BME280;2978;42.012;24.880;2023-08-08T16:44:04;98667.16;;;28.20;31.39
5905;BME280;2978;42.012;24.880;2023-08-08T16:46:30;98669.56;;;28.18;32.13
5905;BME280;2978;42.012;24.880;2023-08-08T16:48:57;98680.03;;;28.14;31.58
5905;BME280;2978;42.012;24.880;2023-08-08T16:51:23;98668.63;;;28.04;32.47
5905;BME280;2978;42.012;24.880;2023-08-08T16:53:49;98681.91;;;27.96;32.61
5905;BME280;2978;42.012;24.880;2023-08-08T16:56:15;98678.16;;;27.85;32.49
5905;BME280;2978;42.012;24.880;2023-08-08T16:58:41;98682.88;;;27.74;33.08
5905;BME280;2978;42.012;24.880;2023-08-08T17:01:07;98686.88;;;27.66;33.48
5905;BME280;2978;42.012;24.880;2023-08-08T17:03:33;98682.75;;;27.60;33.13
5905;BME280;2978;42.012;24.880;2023-08-08T17:05:59;98689.97;;;27.54;33.00
5905;BME280;2978;42.012;24.880;2023-08-08T17:08:24;98684.25;;;27.47;33.86
5905;BME280;2978;42.012;24.880;2023-08-08T17:10:50;98694.28;;;27.41;33.71
5905;BME280;2978;42.012;24.880;2023-08-08T17:13:15;98688.16;;;27.32;33.68
5905;BME280;2978;42.012;24.880;2023-08-08T17:15:41;98688.03;;;27.25;34.57
5905;BME280;2978;42.012;24.880;2023-08-08T17:18:06;98689.03;;;27.06;34.67
5905;BME280;2978;42.012;24.880;2023-08-08T17:20:32;98692.97;;;26.98;34.28
5905;BME280;2978;42.012;24.880;2023-08-08T17:22:57;98694.41;;;26.85;35.10
5905;BME280;2978;42.012;24.880;2023-08-08T17:25:23;98697.91;;;26.75;35.17
5905;BME280;2978;42.012;24.880;2023-08-08T17:27:50;98705.03;;;26.65;35.49
5905;BME280;2978;42.012;24.880;2023-08-08T17:30:15;98707.31;;;26.56;35.71
5905;BME280;2978;42.012;24.880;2023-08-08T17:32:41;98709.50;;;26.40;35.85
5905;BME280;2978;42.012;24.880;2023-08-08T17:35:07;98715.78;;;26.30;35.75
5905;BME280;2978;42.012;24.880;2023-08-08T17:37:32;98709.97;;;26.20;35.88
5905;BME280;2978;42.012;24.880;2023-08-08T17:39:58;98722.03;;;26.17;35.83
5905;BME280;2978;42.012;24.880;2023-08-08T17:42:23;98721.09;;;26.09;36.60
5905;BME280;2978;42.012;24.880;2023-08-08T17:44:49;98732.97;;;25.99;36.73
5905;BME280;2978;42.012;24.880;2023-08-08T17:47:14;98728.72;;;25.86;36.82
5905;BME280;2978;42.012;24.880;2023-08-08T17:49:41;98735.88;;;25.80;37.69
5905;BME280;2978;42.012;24.880;2023-08-08T17:52:06;98736.16;;;25.75;38.00
5905;BME280;2978;42.012;24.880;2023-08-08T17:54:32;98738.13;;;25.71;38.42
5905;BME280;2978;42.012;24.880;2023-08-08T17:56:57;98740.44;;;25.66;38.66
5905;BME280;2978;42.012;24.880;2023-08-08T17:59:23;98736.22;;;25.56;38.58
5905;BME280;2978;42.012;24.880;2023-08-08T18:01:48;98751.50;;;25.55;39.02
5905;BME280;2978;42.012;24.880;2023-08-08T18:04:14;98758.59;;;25.49;39.02
5905;BME280;2978;42.012;24.880;2023-08-08T18:06:39;98763.88;;;25.31;39.46
5905;BME280;2978;42.012;24.880;2023-08-08T18:09:05;98802.03;;;25.10;39.61
5905;BME280;2978;42.012;24.880;2023-08-08T18:11:31;98805.88;;;25.02;39.92
5905;BME280;2978;42.012;24.880;2023-08-08T18:14:04;98813.72;;;24.93;40.64
5905;BME280;2978;42.012;24.880;2023-08-08T18:16:29;98817.53;;;24.85;40.82
5905;BME280;2978;42.012;24.880;2023-08-08T18:18:55;98825.31;;;24.72;41.00
5905;BME280;2978;42.012;24.880;2023-08-08T18:21:20;98832.72;;;24.65;41.27
5905;BME280;2978;42.012;24.880;2023-08-08T18:23:46;98824.94;;;24.58;41.67
5905;BME280;2978;42.012;24.880;2023-08-08T18:26:11;98832.56;;;24.58;41.99
5905;BME280;2978;42.012;24.880;2023-08-08T18:28:42;98827.03;;;24.45;42.13
5905;BME280;2978;42.012;24.880;2023-08-08T18:31:07;98835.75;;;24.40;42.14
5905;BME280;2978;42.012;24.880;2023-08-08T18:33:33;98832.31;;;24.31;42.85
5905;BME280;2978;42.012;24.880;2023-08-08T18:35:58;98840.38;;;24.17;43.53
5905;BME280;2978;42.012;24.880;2023-08-08T18:38:31;98842.19;;;24.10;44.07
5905;BME280;2978;42.012;24.880;2023-08-08T18:40:58;98846.47;;;24.19;44.14
5905;BME280;2978;42.012;24.880;2023-08-08T18:43:24;98857.50;;;24.28;43.95
5905;BME280;2978;42.012;24.880;2023-08-08T18:45:49;98854.50;;;24.36;43.71
5905;BME280;2978;42.012;24.880;2023-08-08T18:48:15;98859.13;;;24.44;42.63
5905;BME280;2978;42.012;24.880;2023-08-08T18:50:40;98863.22;;;24.47;42.42
5905;BME280;2978;42.012;24.880;2023-08-08T18:53:06;98865.28;;;24.50;41.89
5905;BME280;2978;42.012;24.880;2023-08-08T18:55:32;98867.13;;;24.42;42.13
5905;BME280;2978;42.012;24.880;2023-08-08T18:57:57;98864.94;;;24.20;43.41
5905;BME280;2978;42.012;24.880;2023-08-08T19:00:24;98880.63;;;23.94;43.83
5905;BME280;2978;42.012;24.880;2023-08-08T19:02:51;98879.09;;;23.81;44.21
5905;BME280;2978;42.012;24.880;2023-08-08T19:05:17;98880.41;;;23.71;44.42
5905;BME280;2978;42.012;24.880;2023-08-08T19:07:43;98889.50;;;23.80;44.41
5905;BME280;2978;42.012;24.880;2023-08-08T19:10:09;98885.16;;;23.83;44.21
5905;BME280;2978;42.012;24.880;2023-08-08T19:12:35;98882.47;;;23.86;44.36
5905;BME280;2978;42.012;24.880;2023-08-08T19:15:00;98889.84;;;23.79;44.38
5905;BME280;2978;42.012;24.880;2023-08-08T19:17:26;98898.94;;;23.88;44.51
5905;BME280;2978;42.012;24.880;2023-08-08T19:19:51;98901.47;;;23.77;44.35
5905;BME280;2978;42.012;24.880;2023-08-08T19:22:16;98890.03;;;23.70;44.79
5905;BME280;2978;42.012;24.880;2023-08-08T19:24:42;98893.16;;;23.53;45.23
5905;BME280;2978;42.012;24.880;2023-08-08T19:27:07;98893.88;;;23.38;45.55
5905;BME280;2978;42.012;24.880;2023-08-08T19:29:33;98888.78;;;23.28;45.65
5905;BME280;2978;42.012;24.880;2023-08-08T19:31:58;98890.66;;;23.24;46.09
5905;BME280;2978;42.012;24.880;2023-08-08T19:34:24;98892.72;;;23.27;46.08
5905;BME280;2978;42.012;24.880;2023-08-08T19:36:49;98887.38;;;23.22;45.82
5905;BME280;2978;42.012;24.880;2023-08-08T19:39:14;98895.78;;;23.22;45.93
5905;BME280;2978;42.012;24.880;2023-08-08T19:41:40;98890.88;;;23.19;45.94
5905;BME280;2978;42.012;24.880;2023-08-08T19:44:05;98892.53;;;23.20;46.43
5905;BME280;2978;42.012;24.880;2023-08-08T19:46:31;98904.94;;;23.07;46.64
5905;BME280;2978;42.012;24.880;2023-08-08T19:48:56;98890.91;;;22.95;46.91
5905;BME280;2978;42.012;24.880;2023-08-08T19:51:22;98890.81;;;22.91;47.00
5905;BME280;2978;42.012;24.880;2023-08-08T19:53:48;98891.63;;;22.92;46.53
5905;BME280;2978;42.012;24.880;2023-08-08T19:56:14;98885.09;;;22.88;46.89
5905;BME280;2978;42.012;24.880;2023-08-08T19:58:39;98901.53;;;23.01;46.79
5905;BME280;2978;42.012;24.880;2023-08-08T20:01:05;98897.69;;;23.06;46.83
5905;BME280;2978;42.012;24.880;2023-08-08T20:03:30;98904.25;;;23.10;46.32
5905;BME280;2978;42.012;24.880;2023-08-08T20:05:57;98894.03;;;23.17;46.20
5905;BME280;2978;42.012;24.880;2023-08-08T20:08:22;98902.66;;;23.24;46.49
5905;BME280;2978;42.012;24.880;2023-08-08T20:10:48;98905.81;;;23.23;46.79
5905;BME280;2978;42.012;24.880;2023-08-08T20:13:13;98906.78;;;23.15;46.72
5905;BME280;2978;42.012;24.880;2023-08-08T20:15:39;98916.25;;;23.10;47.07
5905;BME280;2978;42.012;24.880;2023-08-08T20:18:05;98914.53;;;23.06;47.37
5905;BME280;2978;42.012;24.880;2023-08-08T20:20:30;98907.88;;;22.86;47.64
5905;BME280;2978;42.012;24.880;2023-08-08T20:22:56;98907.06;;;22.86;48.07
5905;BME280;2978;42.012;24.880;2023-08-08T20:25:21;98911.41;;;22.83;48.10
5905;BME280;2978;42.012;24.880;2023-08-08T20:27:47;98908.72;;;22.75;48.37
5905;BME280;2978;42.012;24.880;2023-08-08T20:30:12;98909.19;;;22.77;48.29
5905;BME280;2978;42.012;24.880;2023-08-08T20:32:38;98912.00;;;22.77;48.08
5905;BME280;2978;42.012;24.880;2023-08-08T20:35:04;98909.50;;;22.75;48.03
5905;BME280;2978;42.012;24.880;2023-08-08T20:37:29;98900.78;;;22.77;47.83
5905;BME280;2978;42.012;24.880;2023-08-08T20:39:55;98909.41;;;22.72;47.50
5905;BME280;2978;42.012;24.880;2023-08-08T20:42:20;98901.00;;;22.60;47.96
5905;BME280;2978;42.012;24.880;2023-08-08T20:44:46;98911.25;;;22.44;48.46
5905;BME280;2978;42.012;24.880;2023-08-08T20:47:11;98910.53;;;22.34;48.54
5905;BME280;2978;42.012;24.880;2023-08-08T20:49:37;98915.91;;;22.27;48.84
5905;BME280;2978;42.012;24.880;2023-08-08T20:52:02;98911.91;;;22.28;49.11
5905;BME280;2978;42.012;24.880;2023-08-08T20:54:28;98914.25;;;22.26;49.18
5905;BME280;2978;42.012;24.880;2023-08-08T20:56:57;98917.16;;;22.18;49.30
5905;BME280;2978;42.012;24.880;2023-08-08T20:59:26;98911.88;;;22.04;49.74
5905;BME280;2978;42.012;24.880;2023-08-08T21:01:52;98907.34;;;22.00;49.51
5905;BME280;2978;42.012;24.880;2023-08-08T21:04:18;98908.47;;;21.99;49.72
5905;BME280;2978;42.012;24.880;2023-08-08T21:06:44;98913.16;;;21.95;50.27
5905;BME280;2978;42.012;24.880;2023-08-08T21:09:09;98926.81;;;21.96;49.71
5905;BME280;2978;42.012;24.880;2023-08-08T21:11:37;98910.75;;;21.85;50.27
5905;BME280;2978;42.012;24.880;2023-08-08T21:14:03;98904.69;;;21.83;50.18
5905;BME280;2978;42.012;24.880;2023-08-08T21:16:29;98909.50;;;21.82;50.42
5905;BME280;2978;42.012;24.880;2023-08-08T21:18:54;98906.22;;;21.80;50.46
5905;BME280;2978;42.012;24.880;2023-08-08T21:21:20;98902.16;;;21.90;50.04
5905;BME280;2978;42.012;24.880;2023-08-08T21:23:45;98912.47;;;21.77;50.22
5905;BME280;2978;42.012;24.880;2023-08-08T21:26:11;98911.53;;;21.73;50.62
5905;BME280;2978;42.012;24.880;2023-08-08T21:28:36;98903.81;;;21.70;50.94
5905;BME280;2978;42.012;24.880;2023-08-08T21:31:01;98908.53;;;21.78;50.50
5905;BME280;2978;42.012;24.880;2023-08-08T21:33:27;98909.28;;;21.67;50.89
5905;BME280;2978;42.012;24.880;2023-08-08T21:35:53;98909.38;;;21.58;51.43
5905;BME280;2978;42.012;24.880;2023-08-08T21:38:18;98904.66;;;21.50;51.72